Charlotte Roush — WDE5112 — position and weather

sailwx.info

Track history (hours):
 
Tides and Currents Weather Stations Pressure Air Temp Water Temp Dewpoint Dewpoint Depression Visibility Wind Speed Wind Dir Waves Ship Positions

Charlotte Roush

More information available from US FCC via Universal Licensing System and Coast Guard Vessel Documentation Center.

Last reported at 2014-Aug-25 15:28 UTC. Time now 2014-Aug-27 09:10 UTC.
Position N 30°03' W 090°30'.

Length 35 m; draft 3 m.

Type: Towing. MMSI: 367362230.

Date/timePositionNaut miles runAvg speedWind from/ knotsBaromVisibWave heightAir tempDewpointWater temp
2014-Aug-25 15:28N 30°03' W 090°30'4 4.1
2014-Aug-25 14:33N 30°03' W 090°35'1 0.8
2014-Aug-25 13:33N 30°03' W 090°36'5 4.5
2014-Aug-25 12:33N 30°03' W 090°41'5 5.1
2014-Aug-25 11:33N 30°01' W 090°46'1 1.5
2014-Aug-25 10:33N 30°00' W 090°48'0 0.0
2014-Aug-25 09:33N 30°00' W 090°48'0 0.0
2014-Aug-25 08:33N 30°00' W 090°48'0 0.0
2014-Aug-25 07:33N 30°00' W 090°48'0 0.0
2014-Aug-25 06:33N 30°00' W 090°48'0 0.0
2014-Aug-25 05:33N 30°00' W 090°48'0 0.0
2014-Aug-25 04:33N 30°00' W 090°48'1 0.5
2014-Aug-25 03:33N 30°00' W 090°47'0 0.0
2014-Aug-25 01:33N 30°01' W 090°47'0 0.0
2014-Aug-25 00:33N 30°01' W 090°47'0 0.0
2014-Aug-24 23:33N 30°01' W 090°47'0 0.0
2014-Aug-24 22:33N 30°01' W 090°47'0 0.0
2014-Aug-24 21:33N 30°01' W 090°47'0 0.0
2014-Aug-24 20:32N 30°01' W 090°47'0 0.0
2014-Aug-24 19:33N 30°01' W 090°47'0 0.0
2014-Aug-24 18:33N 30°01' W 090°47'0 0.0
2014-Aug-24 17:33N 30°01' W 090°47'0 0.0
2014-Aug-24 16:33N 30°01' W 090°47'0 0.0
2014-Aug-24 15:13N 30°01' W 090°47'0 0.0
2014-Aug-24 14:33N 30°01' W 090°47'0 0.0
2014-Aug-24 12:15N 30°01' W 090°47'0 0.0
2014-Aug-24 11:33N 30°01' W 090°47'0 0.0
2014-Aug-24 10:33N 30°01' W 090°47'0 0.0
2014-Aug-24 09:32N 30°01' W 090°47'0 0.0
2014-Aug-24 08:33N 30°01' W 090°47'0 0.0
2014-Aug-24 07:33N 30°01' W 090°47'0 0.0
2014-Aug-24 06:33N 30°01' W 090°47'0 0.0
2014-Aug-24 05:33N 30°01' W 090°47'0 0.0
2014-Aug-24 04:33N 30°01' W 090°47'0 0.0
2014-Aug-24 03:32N 30°01' W 090°47'0 0.0
2014-Aug-24 02:33N 30°01' W 090°47'0 0.0
2014-Aug-24 01:33N 30°01' W 090°47'0 0.0
2014-Aug-24 00:33N 30°01' W 090°47'16 0.8
2014-Aug-23 03:33N 30°03' W 090°29'0 0.1
2014-Aug-23 02:33N 30°03' W 090°29'0 0.0
2014-Aug-23 01:33N 30°03' W 090°29'0 0.1
2014-Aug-23 00:33N 30°03' W 090°29'0 0.0
2014-Aug-22 23:33N 30°03' W 090°29'2 0.2
2014-Aug-22 12:33N 30°01' W 090°28'0 0.0
2014-Aug-22 11:33N 30°01' W 090°28'2 2.1
2014-Aug-22 10:33N 29°60' W 090°26'4 4.2
2014-Aug-22 09:33N 29°57' W 090°23'2 1.7
2014-Aug-22 08:33N 29°56' W 090°21'0 0.0
2014-Aug-22 07:33N 29°56' W 090°21'0 0.0
2014-Aug-22 06:33N 29°56' W 090°21'0 0.0
2014-Aug-22 05:33N 29°56' W 090°21'0 0.0
2014-Aug-22 04:29N 29°56' W 090°21'0 0.0
2014-Aug-22 03:27N 29°56' W 090°21'0 0.0
2014-Aug-22 02:33N 29°56' W 090°21'0 0.0
2014-Aug-22 01:33N 29°56' W 090°21'0 0.0
2014-Aug-22 00:33N 29°56' W 090°21'0 0.0
2014-Aug-21 23:33N 29°56' W 090°21'0 0.0
2014-Aug-21 22:33N 29°56' W 090°21'8 0.2
2014-Aug-20 10:15N 29°55' W 090°12'6 2.7
2014-Aug-20 08:07N 29°57' W 090°18'0 0.3
2014-Aug-20 07:33N 29°57' W 090°19'4 4.3
2014-Aug-20 06:33N 29°57' W 090°24'4 3.9
2014-Aug-20 05:33N 29°60' W 090°27'5 4.5
2014-Aug-20 04:33N 30°03' W 090°31'6 6.1
2014-Aug-20 03:33N 30°02' W 090°37'5 5.3
2014-Aug-20 02:33N 30°01' W 090°43'4 4.0
2014-Aug-20 01:33N 30°00' W 090°48'0 0.1
2014-Aug-20 00:34N 30°00' W 090°48'0 0.0
2014-Aug-19 23:33N 30°00' W 090°48'1 0.6
2014-Aug-19 22:33N 29°59' W 090°48'11 2.7
2014-Aug-19 18:32N 30°02' W 090°36'2 1.9
2014-Aug-19 17:33N 30°03' W 090°34'0 0.1
2014-Aug-19 16:33N 30°03' W 090°34'1 1.1
2014-Aug-19 15:33N 30°03' W 090°33'0 0.0
2014-Aug-19 14:33N 30°03' W 090°33'1 0.9
2014-Aug-19 13:33N 30°03' W 090°32'0 0.3
2014-Aug-19 12:33N 30°03' W 090°32'1 1.1
2014-Aug-19 11:33N 30°03' W 090°31'0 0.0
2014-Aug-19 10:33N 30°03' W 090°31'0 0.0
2014-Aug-19 09:33N 30°03' W 090°31'0 0.0
2014-Aug-19 08:33N 30°03' W 090°31'0 0.1
2014-Aug-19 07:33N 30°03' W 090°31'5 4.8
2014-Aug-19 06:33N 30°02' W 090°36'6 6.1
2014-Aug-19 05:33N 30°01' W 090°43'6 0.9
2014-Aug-18 23:17N 29°59' W 090°49'2 2.4
2014-Aug-18 22:33N 30°00' W 090°48'10 1.9
2014-Aug-18 17:13N 30°02' W 090°36'2 2.5
2014-Aug-18 16:33N 30°03' W 090°34'5 1.2
2014-Aug-18 12:33N 30°03' W 090°29'0 0.0
2014-Aug-18 11:33N 30°03' W 090°29'2 2.1
2014-Aug-18 10:33N 30°01' W 090°28'5 4.6
2014-Aug-18 09:26N 29°58' W 090°24'4 4.4
2014-Aug-18 08:33N 29°56' W 090°20'0 0.0
2014-Aug-18 07:33N 29°56' W 090°20'0 0.0
2014-Aug-18 06:33N 29°56' W 090°20'0 0.0
2014-Aug-18 05:33N 29°56' W 090°20'0 0.0
2014-Aug-18 04:33N 29°56' W 090°20'0 0.0
2014-Aug-18 03:33N 29°56' W 090°20'0 0.0
2014-Aug-18 02:33N 29°56' W 090°20'0 0.0
2014-Aug-18 01:33N 29°56' W 090°20'0 0.1
2014-Aug-18 00:33N 29°56' W 090°20'12 2.0
2014-Aug-17 18:33N 30°03' W 090°32'3 2.5
2014-Aug-17 17:33N 30°03' W 090°35'3 3.0
2014-Aug-17 16:33N 30°02' W 090°38'6 6.0
2014-Aug-17 15:33N 30°01' W 090°45'3 0.8
2014-Aug-17 12:19N 30°00' W 090°48'0 0.0
2014-Aug-17 06:29N 30°00' W 090°48'2 1.3
2014-Aug-17 05:04N 29°59' W 090°49'3 5.1
2014-Aug-17 04:33N 30°00' W 090°47'5 5.1
2014-Aug-17 03:33N 30°02' W 090°41'4 4.5
2014-Aug-17 02:33N 30°03' W 090°36'5 5.2
2014-Aug-17 01:33N 30°03' W 090°30'1 0.8
2014-Aug-17 00:33N 30°03' W 090°29'0 0.1
2014-Aug-16 23:33N 30°03' W 090°29'0 0.1
2014-Aug-16 22:33N 30°03' W 090°29'3 2.6
2014-Aug-16 21:33N 30°03' W 090°32'0 0.4
2014-Aug-16 20:33N 30°03' W 090°32'0 0.1
2014-Aug-16 19:33N 30°03' W 090°32'5 4.7
2014-Aug-16 18:33N 30°02' W 090°37'6 5.9
2014-Aug-16 17:30N 30°01' W 090°44'5 0.9
2014-Aug-16 11:33N 30°01' W 090°50'2 2.1
2014-Aug-16 10:33N 29°59' W 090°49'2 2.0
2014-Aug-16 09:32N 30°00' W 090°47'5 5.4
2014-Aug-16 08:33N 30°02' W 090°41'5 4.7
2014-Aug-16 07:33N 30°03' W 090°36'1 1.3
2014-Aug-16 06:33N 30°03' W 090°34'0 0.0
2014-Aug-16 05:33N 30°03' W 090°34'0 0.0
2014-Aug-16 04:33N 30°03' W 090°34'1 0.7
2014-Aug-16 03:33N 30°03' W 090°34'1 0.7
2014-Aug-16 02:33N 30°03' W 090°34'4 3.6
2014-Aug-16 01:33N 30°03' W 090°39'7 7.0
2014-Aug-16 00:33N 30°01' W 090°46'3 1.3
2014-Aug-15 22:09N 29°59' W 090°49'2 3.3
2014-Aug-15 21:31N 30°00' W 090°47'10 3.1
2014-Aug-15 18:25N 30°02' W 090°36'3 3.0
2014-Aug-15 17:33N 30°03' W 090°33'  
Track history (hours):
 
Tides and Currents Weather Stations Pressure Air Temp Water Temp Dewpoint Dewpoint Depression Visibility Wind Speed Wind Dir Waves Ship Positions

Charlotte Roush

More information available from US FCC via Universal Licensing System and Coast Guard Vessel Documentation Center.

Last reported at 2014-Aug-25 15:28 UTC. Time now 2014-Aug-27 09:10 UTC.
Position N 30°03' W 090°30'.

Length 35 m; draft 3 m.

Type: Towing. MMSI: 367362230.

Date/timePositionNaut miles runAvg speedWind from/ knotsBaromVisibWave heightAir tempDewpointWater temp
2014-Aug-25 15:28N 30°03' W 090°30'4 4.1
2014-Aug-25 14:33N 30°03' W 090°35'1 0.8
2014-Aug-25 13:33N 30°03' W 090°36'5 4.5
2014-Aug-25 12:33N 30°03' W 090°41'5 5.1
2014-Aug-25 11:33N 30°01' W 090°46'1 1.5
2014-Aug-25 10:33N 30°00' W 090°48'0 0.0
2014-Aug-25 09:33N 30°00' W 090°48'0 0.0
2014-Aug-25 08:33N 30°00' W 090°48'0 0.0
2014-Aug-25 07:33N 30°00' W 090°48'0 0.0
2014-Aug-25 06:33N 30°00' W 090°48'0 0.0
2014-Aug-25 05:33N 30°00' W 090°48'0 0.0
2014-Aug-25 04:33N 30°00' W 090°48'1 0.5
2014-Aug-25 03:33N 30°00' W 090°47'0 0.0
2014-Aug-25 01:33N 30°01' W 090°47'0 0.0
2014-Aug-25 00:33N 30°01' W 090°47'0 0.0
2014-Aug-24 23:33N 30°01' W 090°47'0 0.0
2014-Aug-24 22:33N 30°01' W 090°47'0 0.0
2014-Aug-24 21:33N 30°01' W 090°47'0 0.0
2014-Aug-24 20:32N 30°01' W 090°47'0 0.0
2014-Aug-24 19:33N 30°01' W 090°47'0 0.0
2014-Aug-24 18:33N 30°01' W 090°47'0 0.0
2014-Aug-24 17:33N 30°01' W 090°47'0 0.0
2014-Aug-24 16:33N 30°01' W 090°47'0 0.0
2014-Aug-24 15:13N 30°01' W 090°47'0 0.0
2014-Aug-24 14:33N 30°01' W 090°47'0 0.0
2014-Aug-24 12:15N 30°01' W 090°47'0 0.0
2014-Aug-24 11:33N 30°01' W 090°47'0 0.0
2014-Aug-24 10:33N 30°01' W 090°47'0 0.0
2014-Aug-24 09:32N 30°01' W 090°47'0 0.0
2014-Aug-24 08:33N 30°01' W 090°47'0 0.0
2014-Aug-24 07:33N 30°01' W 090°47'0 0.0
2014-Aug-24 06:33N 30°01' W 090°47'0 0.0
2014-Aug-24 05:33N 30°01' W 090°47'0 0.0
2014-Aug-24 04:33N 30°01' W 090°47'0 0.0
2014-Aug-24 03:32N 30°01' W 090°47'0 0.0
2014-Aug-24 02:33N 30°01' W 090°47'0 0.0
2014-Aug-24 01:33N 30°01' W 090°47'0 0.0
2014-Aug-24 00:33N 30°01' W 090°47'16 0.8
2014-Aug-23 03:33N 30°03' W 090°29'0 0.1
2014-Aug-23 02:33N 30°03' W 090°29'0 0.0
2014-Aug-23 01:33N 30°03' W 090°29'0 0.1
2014-Aug-23 00:33N 30°03' W 090°29'0 0.0
2014-Aug-22 23:33N 30°03' W 090°29'2 0.2
2014-Aug-22 12:33N 30°01' W 090°28'0 0.0
2014-Aug-22 11:33N 30°01' W 090°28'2 2.1
2014-Aug-22 10:33N 29°60' W 090°26'4 4.2
2014-Aug-22 09:33N 29°57' W 090°23'2 1.7
2014-Aug-22 08:33N 29°56' W 090°21'0 0.0
2014-Aug-22 07:33N 29°56' W 090°21'0 0.0
2014-Aug-22 06:33N 29°56' W 090°21'0 0.0
2014-Aug-22 05:33N 29°56' W 090°21'0 0.0
2014-Aug-22 04:29N 29°56' W 090°21'0 0.0
2014-Aug-22 03:27N 29°56' W 090°21'0 0.0
2014-Aug-22 02:33N 29°56' W 090°21'0 0.0
2014-Aug-22 01:33N 29°56' W 090°21'0 0.0
2014-Aug-22 00:33N 29°56' W 090°21'0 0.0
2014-Aug-21 23:33N 29°56' W 090°21'0 0.0
2014-Aug-21 22:33N 29°56' W 090°21'8 0.2
2014-Aug-20 10:15N 29°55' W 090°12'6 2.7
2014-Aug-20 08:07N 29°57' W 090°18'0 0.3
2014-Aug-20 07:33N 29°57' W 090°19'4 4.3
2014-Aug-20 06:33N 29°57' W 090°24'4 3.9
2014-Aug-20 05:33N 29°60' W 090°27'5 4.5
2014-Aug-20 04:33N 30°03' W 090°31'6 6.1
2014-Aug-20 03:33N 30°02' W 090°37'5 5.3
2014-Aug-20 02:33N 30°01' W 090°43'4 4.0
2014-Aug-20 01:33N 30°00' W 090°48'0 0.1
2014-Aug-20 00:34N 30°00' W 090°48'0 0.0
2014-Aug-19 23:33N 30°00' W 090°48'1 0.6
2014-Aug-19 22:33N 29°59' W 090°48'11 2.7
2014-Aug-19 18:32N 30°02' W 090°36'2 1.9
2014-Aug-19 17:33N 30°03' W 090°34'0 0.1
2014-Aug-19 16:33N 30°03' W 090°34'1 1.1
2014-Aug-19 15:33N 30°03' W 090°33'0 0.0
2014-Aug-19 14:33N 30°03' W 090°33'1 0.9
2014-Aug-19 13:33N 30°03' W 090°32'0 0.3
2014-Aug-19 12:33N 30°03' W 090°32'1 1.1
2014-Aug-19 11:33N 30°03' W 090°31'0 0.0
2014-Aug-19 10:33N 30°03' W 090°31'0 0.0
2014-Aug-19 09:33N 30°03' W 090°31'0 0.0
2014-Aug-19 08:33N 30°03' W 090°31'0 0.1
2014-Aug-19 07:33N 30°03' W 090°31'5 4.8
2014-Aug-19 06:33N 30°02' W 090°36'6 6.1
2014-Aug-19 05:33N 30°01' W 090°43'6 0.9
2014-Aug-18 23:17N 29°59' W 090°49'2 2.4
2014-Aug-18 22:33N 30°00' W 090°48'10 1.9
2014-Aug-18 17:13N 30°02' W 090°36'2 2.5
2014-Aug-18 16:33N 30°03' W 090°34'5 1.2
2014-Aug-18 12:33N 30°03' W 090°29'0 0.0
2014-Aug-18 11:33N 30°03' W 090°29'2 2.1
2014-Aug-18 10:33N 30°01' W 090°28'5 4.6
2014-Aug-18 09:26N 29°58' W 090°24'4 4.4
2014-Aug-18 08:33N 29°56' W 090°20'0 0.0
2014-Aug-18 07:33N 29°56' W 090°20'0 0.0
2014-Aug-18 06:33N 29°56' W 090°20'0 0.0
2014-Aug-18 05:33N 29°56' W 090°20'0 0.0
2014-Aug-18 04:33N 29°56' W 090°20'0 0.0
2014-Aug-18 03:33N 29°56' W 090°20'0 0.0
2014-Aug-18 02:33N 29°56' W 090°20'0 0.0
2014-Aug-18 01:33N 29°56' W 090°20'0 0.1
2014-Aug-18 00:33N 29°56' W 090°20'12 2.0
2014-Aug-17 18:33N 30°03' W 090°32'3 2.5
2014-Aug-17 17:33N 30°03' W 090°35'3 3.0
2014-Aug-17 16:33N 30°02' W 090°38'6 6.0
2014-Aug-17 15:33N 30°01' W 090°45'3 0.8
2014-Aug-17 12:19N 30°00' W 090°48'0 0.0
2014-Aug-17 06:29N 30°00' W 090°48'2 1.3
2014-Aug-17 05:04N 29°59' W 090°49'3 5.1
2014-Aug-17 04:33N 30°00' W 090°47'5 5.1
2014-Aug-17 03:33N 30°02' W 090°41'4 4.5
2014-Aug-17 02:33N 30°03' W 090°36'5 5.2
2014-Aug-17 01:33N 30°03' W 090°30'1 0.8
2014-Aug-17 00:33N 30°03' W 090°29'0 0.1
2014-Aug-16 23:33N 30°03' W 090°29'0 0.1
2014-Aug-16 22:33N 30°03' W 090°29'3 2.6
2014-Aug-16 21:33N 30°03' W 090°32'0 0.4
2014-Aug-16 20:33N 30°03' W 090°32'0 0.1
2014-Aug-16 19:33N 30°03' W 090°32'5 4.7
2014-Aug-16 18:33N 30°02' W 090°37'6 5.9
2014-Aug-16 17:30N 30°01' W 090°44'5 0.9
2014-Aug-16 11:33N 30°01' W 090°50'2 2.1
2014-Aug-16 10:33N 29°59' W 090°49'2 2.0
2014-Aug-16 09:32N 30°00' W 090°47'5 5.4
2014-Aug-16 08:33N 30°02' W 090°41'5 4.7
2014-Aug-16 07:33N 30°03' W 090°36'1 1.3
2014-Aug-16 06:33N 30°03' W 090°34'0 0.0
2014-Aug-16 05:33N 30°03' W 090°34'0 0.0
2014-Aug-16 04:33N 30°03' W 090°34'1 0.7
2014-Aug-16 03:33N 30°03' W 090°34'1 0.7
2014-Aug-16 02:33N 30°03' W 090°34'4 3.6
2014-Aug-16 01:33N 30°03' W 090°39'7 7.0
2014-Aug-16 00:33N 30°01' W 090°46'3 1.3
2014-Aug-15 22:09N 29°59' W 090°49'2 3.3
2014-Aug-15 21:31N 30°00' W 090°47'10 3.1
2014-Aug-15 18:25N 30°02' W 090°36'3 3.0
2014-Aug-15 17:33N 30°03' W 090°33'  

Dump ship's entire track history